PTKK

Details ICAO PTKK (TKK)
Name Chuuk Airport
Region Federated States of Micronesia, Palau
Timezone Pacific/Chuuk (UTC+10.0)
Plans Departing 89
Arriving 105
Stats Elevation 11 ft / 3 m (AMSL)
Location 7.461910° 151.843000°
Runways 1
Magnetic Variation 3.957° E
Sunrise 2020-05-24 19:35:54 UTC / 2020-05-25 05:35:54 Local
Sunset 2020-05-25 08:06:06 UTC / 2020-05-25 18:06:06 Local
Advertisement - Login to hide

Runways

ID Width Length Bearing (true/mag) Surface Threshold Overrun Markings Lighting
04 151 ft / 46 m 6,019 ft / 1,835 m 45.83° / 41.87° ASPHALT 0 ft / 0 m 190 ft / 58 m PREC-APP EDGE THRESHOLD REIL-OMNI
22 151 ft / 46 m 6,019 ft / 1,835 m 225.83° / 221.87° ASPHALT 0 ft / 0 m 184 ft / 56 m PREC-APP EDGE THRESHOLD REIL-OMNI

Map

Weather


0- 5 10 15 20 25 30 35+ Temperature / °C

Clouds and Precipitation
Forecast for 2020-05-24 18:00 UTC. Updated 5 hours ago

Ground ~20,000 ft ~40,000 ft Winds

METAR

PTKK 242050Z 07010KT 15SM FEW014 SCT120 OVC280 28/26 A2988 RMK SLP120 60001 8/171 T02820263 52010

TAF

TAF PTKK 241720Z 2418/2518 07010KT P6SM VCSH SCT018 SCT050 BKN110

Frequencies

Unicom 123.60 MHz CTAF
Warning: Do not use this data for real-world aviation or navigation. No guarantee of current accuracy is given.